sensor_id;sensor_type;location;lat;lon;timestamp;temperature;humidity
46490;DHT22;32204;49.160;8.580;2023-11-21T00:01:57;10.60;99.90
46490;DHT22;32204;49.160;8.580;2023-11-21T00:04:23;10.60;99.90
46490;DHT22;32204;49.160;8.580;2023-11-21T00:06:49;10.70;99.90
46490;DHT22;32204;49.160;8.580;2023-11-21T00:09:15;10.60;99.90
46490;DHT22;32204;49.160;8.580;2023-11-21T00:11:41;10.60;99.90
46490;DHT22;32204;49.160;8.580;2023-11-21T00:14:07;10.60;99.90
46490;DHT22;32204;49.160;8.580;2023-11-21T00:16:33;10.60;99.90
46490;DHT22;32204;49.160;8.580;2023-11-21T00:18:59;10.60;99.90
46490;DHT22;32204;49.160;8.580;2023-11-21T00:21:25;10.60;99.90
46490;DHT22;32204;49.160;8.580;2023-11-21T00:23:51;10.60;99.90
46490;DHT22;32204;49.160;8.580;2023-11-21T00:26:16;10.70;99.90
46490;DHT22;32204;49.160;8.580;2023-11-21T00:28:42;10.70;99.90
46490;DHT22;32204;49.160;8.580;2023-11-21T00:31:08;10.70;99.90
46490;DHT22;32204;49.160;8.580;2023-11-21T00:33:33;10.60;99.90
46490;DHT22;32204;49.160;8.580;2023-11-21T00:35:59;10.70;99.90
46490;DHT22;32204;49.160;8.580;2023-11-21T00:38:26;10.70;99.90
46490;DHT22;32204;49.160;8.580;2023-11-21T00:40:52;10.70;99.90
46490;DHT22;32204;49.160;8.580;2023-11-21T00:43:23;10.70;99.90
46490;DHT22;32204;49.160;8.580;2023-11-21T00:45:49;10.70;99.90
46490;DHT22;32204;49.160;8.580;2023-11-21T00:48:15;10.80;99.90
46490;DHT22;32204;49.160;8.580;2023-11-21T00:50:41;10.80;99.90
46490;DHT22;32204;49.160;8.580;2023-11-21T00:53:06;10.80;99.90
46490;DHT22;32204;49.160;8.580;2023-11-21T00:55:33;10.80;99.90
46490;DHT22;32204;49.160;8.580;2023-11-21T00:57:59;10.80;99.90
46490;DHT22;32204;49.160;8.580;2023-11-21T01:00:25;10.90;99.90
46490;DHT22;32204;49.160;8.580;2023-11-21T01:02:51;10.90;93.50
46490;DHT22;32204;49.160;8.580;2023-11-21T01:05:17;10.90;63.10
46490;DHT22;32204;49.160;8.580;2023-11-21T01:07:43;10.90;79.00
46490;DHT22;32204;49.160;8.580;2023-11-21T01:10:09;10.90;82.80
46490;DHT22;32204;49.160;8.580;2023-11-21T01:12:36;10.90;72.40
46490;DHT22;32204;49.160;8.580;2023-11-21T01:15:06;10.90;61.70
46490;DHT22;32204;49.160;8.580;2023-11-21T01:17:34;10.80;56.50
46490;DHT22;32204;49.160;8.580;2023-11-21T01:20:01;10.80;99.40
46490;DHT22;32204;49.160;8.580;2023-11-21T01:22:27;10.70;99.90
46490;DHT22;32204;49.160;8.580;2023-11-21T01:24:53;10.80;99.90
46490;DHT22;32204;49.160;8.580;2023-11-21T01:27:19;10.70;93.00
46490;DHT22;32204;49.160;8.580;2023-11-21T01:29:45;10.80;99.90
46490;DHT22;32204;49.160;8.580;2023-11-21T01:32:11;10.80;87.80
46490;DHT22;32204;49.160;8.580;2023-11-21T01:34:37;10.80;67.50
46490;DHT22;32204;49.160;8.580;2023-11-21T01:37:03;10.80;52.30
46490;DHT22;32204;49.160;8.580;2023-11-21T01:39:30;10.80;64.40
46490;DHT22;32204;49.160;8.580;2023-11-21T01:41:57;10.80;58.40
46490;DHT22;32204;49.160;8.580;2023-11-21T01:44:25;10.80;40.70
46490;DHT22;32204;49.160;8.580;2023-11-21T01:46:51;10.70;59.10
46490;DHT22;32204;49.160;8.580;2023-11-21T01:49:17;10.80;66.30
46490;DHT22;32204;49.160;8.580;2023-11-21T01:51:46;10.80;61.00
46490;DHT22;32204;49.160;8.580;2023-11-21T01:54:13;10.80;50.30
46490;DHT22;32204;49.160;8.580;2023-11-21T01:56:38;10.80;31.00
46490;DHT22;32204;49.160;8.580;2023-11-21T01:59:05;10.80;54.80
46490;DHT22;32204;49.160;8.580;2023-11-21T02:01:33;10.80;84.00
46490;DHT22;32204;49.160;8.580;2023-11-21T02:03:58;10.70;25.90
46490;DHT22;32204;49.160;8.580;2023-11-21T02:06:24;10.70;60.40
46490;DHT22;32204;49.160;8.580;2023-11-21T02:08:51;10.70;96.30
46490;DHT22;32204;49.160;8.580;2023-11-21T02:11:17;10.70;94.00
46490;DHT22;32204;49.160;8.580;2023-11-21T02:13:44;10.70;99.90
46490;DHT22;32204;49.160;8.580;2023-11-21T02:16:11;10.70;99.90
46490;DHT22;32204;49.160;8.580;2023-11-21T02:18:39;10.80;99.90
46490;DHT22;32204;49.160;8.580;2023-11-21T02:21:05;10.80;99.90
46490;DHT22;32204;49.160;8.580;2023-11-21T02:23:31;10.80;99.90
46490;DHT22;32204;49.160;8.580;2023-11-21T02:25:56;10.70;93.20
46490;DHT22;32204;49.160;8.580;2023-11-21T02:28:22;10.70;99.90
46490;DHT22;32204;49.160;8.580;2023-11-21T02:30:52;10.70;99.90
46490;DHT22;32204;49.160;8.580;2023-11-21T02:33:24;10.80;99.90
46490;DHT22;32204;49.160;8.580;2023-11-21T02:35:50;10.70;99.90
46490;DHT22;32204;49.160;8.580;2023-11-21T02:38:20;10.70;99.90
46490;DHT22;32204;49.160;8.580;2023-11-21T02:40:46;10.70;99.90
46490;DHT22;32204;49.160;8.580;2023-11-21T02:43:11;10.70;99.90
46490;DHT22;32204;49.160;8.580;2023-11-21T02:45:37;10.70;99.90
46490;DHT22;32204;49.160;8.580;2023-11-21T02:48:03;10.70;99.90
46490;DHT22;32204;49.160;8.580;2023-11-21T02:50:29;10.60;99.90
46490;DHT22;32204;49.160;8.580;2023-11-21T02:52:55;10.60;99.90
46490;DHT22;32204;49.160;8.580;2023-11-21T02:55:23;10.60;99.90
46490;DHT22;32204;49.160;8.580;2023-11-21T02:57:50;10.60;99.90
46490;DHT22;32204;49.160;8.580;2023-11-21T03:00:16;10.60;99.90
46490;DHT22;32204;49.160;8.580;2023-11-21T03:02:42;10.60;99.90
46490;DHT22;32204;49.160;8.580;2023-11-21T03:05:09;10.50;99.90
46490;DHT22;32204;49.160;8.580;2023-11-21T03:07:35;10.50;99.90
46490;DHT22;32204;49.160;8.580;2023-11-21T03:10:00;10.50;99.90
46490;DHT22;32204;49.160;8.580;2023-11-21T03:12:26;10.50;99.90
46490;DHT22;32204;49.160;8.580;2023-11-21T03:14:51;10.50;99.90
46490;DHT22;32204;49.160;8.580;2023-11-21T03:17:17;10.50;99.90
46490;DHT22;32204;49.160;8.580;2023-11-21T03:19:42;10.50;99.90
46490;DHT22;32204;49.160;8.580;2023-11-21T03:22:08;10.60;99.90
46490;DHT22;32204;49.160;8.580;2023-11-21T03:24:35;10.60;99.90
46490;DHT22;32204;49.160;8.580;2023-11-21T03:27:00;10.60;99.90
46490;DHT22;32204;49.160;8.580;2023-11-21T03:29:26;10.60;99.90
46490;DHT22;32204;49.160;8.580;2023-11-21T03:31:51;10.60;99.90
46490;DHT22;32204;49.160;8.580;2023-11-21T03:34:25;10.70;99.90
46490;DHT22;32204;49.160;8.580;2023-11-21T03:36:53;10.60;99.90
46490;DHT22;32204;49.160;8.580;2023-11-21T03:39:22;10.50;99.90
46490;DHT22;32204;49.160;8.580;2023-11-21T03:41:48;10.40;99.90
46490;DHT22;32204;49.160;8.580;2023-11-21T03:44:14;10.40;99.90
46490;DHT22;32204;49.160;8.580;2023-11-21T03:46:40;10.50;99.90
46490;DHT22;32204;49.160;8.580;2023-11-21T03:49:06;10.50;99.90
46490;DHT22;32204;49.160;8.580;2023-11-21T03:51:31;10.50;99.90
46490;DHT22;32204;49.160;8.580;2023-11-21T03:53:57;10.50;99.90
46490;DHT22;32204;49.160;8.580;2023-11-21T03:56:22;10.50;99.90
46490;DHT22;32204;49.160;8.580;2023-11-21T03:58:48;10.50;99.90
46490;DHT22;32204;49.160;8.580;2023-11-21T04:01:24;10.50;99.90
46490;DHT22;32204;49.160;8.580;2023-11-21T04:03:50;10.50;99.90
46490;DHT22;32204;49.160;8.580;2023-11-21T04:06:17;10.50;99.90
46490;DHT22;32204;49.160;8.580;2023-11-21T04:08:43;10.50;99.90
46490;DHT22;32204;49.160;8.580;2023-11-21T04:11:09;10.50;99.90
46490;DHT22;32204;49.160;8.580;2023-11-21T04:13:40;10.40;99.90
46490;DHT22;32204;49.160;8.580;2023-11-21T04:16:06;10.40;99.90
46490;DHT22;32204;49.160;8.580;2023-11-21T04:18:32;10.30;99.90
46490;DHT22;32204;49.160;8.580;2023-11-21T04:20:57;10.30;99.90
46490;DHT22;32204;49.160;8.580;2023-11-21T04:23:23;10.30;99.90
46490;DHT22;32204;49.160;8.580;2023-11-21T04:25:48;10.30;99.90
46490;DHT22;32204;49.160;8.580;2023-11-21T04:28:14;10.30;99.90
46490;DHT22;32204;49.160;8.580;2023-11-21T04:30:39;10.40;99.90
46490;DHT22;32204;49.160;8.580;2023-11-21T04:33:06;10.40;99.90
46490;DHT22;32204;49.160;8.580;2023-11-21T04:35:33;10.30;99.90
46490;DHT22;32204;49.160;8.580;2023-11-21T04:37:58;10.30;99.90
46490;DHT22;32204;49.160;8.580;2023-11-21T04:40:24;10.30;99.90
46490;DHT22;32204;49.160;8.580;2023-11-21T04:42:49;10.40;99.90
46490;DHT22;32204;49.160;8.580;2023-11-21T04:45:15;10.40;99.90
46490;DHT22;32204;49.160;8.580;2023-11-21T04:47:41;10.40;99.90
46490;DHT22;32204;49.160;8.580;2023-11-21T04:50:07;10.40;99.90
46490;DHT22;32204;49.160;8.580;2023-11-21T04:52:32;10.30;99.90
46490;DHT22;32204;49.160;8.580;2023-11-21T04:55:01;10.30;99.90
46490;DHT22;32204;49.160;8.580;2023-11-21T04:57:27;10.30;99.90
46490;DHT22;32204;49.160;8.580;2023-11-21T04:59:54;10.30;99.90
46490;DHT22;32204;49.160;8.580;2023-11-21T05:02:19;10.30;99.90
46490;DHT22;32204;49.160;8.580;2023-11-21T05:04:46;10.40;99.90
46490;DHT22;32204;49.160;8.580;2023-11-21T05:07:12;10.40;99.90
46490;DHT22;32204;49.160;8.580;2023-11-21T05:09:42;10.40;99.90
46490;DHT22;32204;49.160;8.580;2023-11-21T05:12:09;10.30;99.90
46490;DHT22;32204;49.160;8.580;2023-11-21T05:14:35;10.30;99.90
46490;DHT22;32204;49.160;8.580;2023-11-21T05:17:01;10.30;99.90
46490;DHT22;32204;49.160;8.580;2023-11-21T05:19:26;10.30;99.90
46490;DHT22;32204;49.160;8.580;2023-11-21T05:21:52;10.40;99.90
46490;DHT22;32204;49.160;8.580;2023-11-21T05:24:18;10.30;99.90
46490;DHT22;32204;49.160;8.580;2023-11-21T05:26:43;10.40;99.90
46490;DHT22;32204;49.160;8.580;2023-11-21T05:29:09;10.40;99.90
46490;DHT22;32204;49.160;8.580;2023-11-21T05:31:36;10.40;99.90
46490;DHT22;32204;49.160;8.580;2023-11-21T05:34:03;10.40;99.90
46490;DHT22;32204;49.160;8.580;2023-11-21T05:36:28;10.40;99.90
46490;DHT22;32204;49.160;8.580;2023-11-21T05:38:54;10.40;99.90
46490;DHT22;32204;49.160;8.580;2023-11-21T05:41:19;10.40;99.90
46490;DHT22;32204;49.160;8.580;2023-11-21T05:43:45;10.40;99.90
46490;DHT22;32204;49.160;8.580;2023-11-21T05:46:13;10.40;99.90
46490;DHT22;32204;49.160;8.580;2023-11-21T05:48:39;10.30;99.90
46490;DHT22;32204;49.160;8.580;2023-11-21T05:51:08;10.30;99.90
46490;DHT22;32204;49.160;8.580;2023-11-21T05:53:34;10.30;99.90
46490;DHT22;32204;49.160;8.580;2023-11-21T05:56:00;10.30;99.90
46490;DHT22;32204;49.160;8.580;2023-11-21T05:58:25;10.30;99.90
46490;DHT22;32204;49.160;8.580;2023-11-21T06:00:51;10.30;99.90
46490;DHT22;32204;49.160;8.580;2023-11-21T06:03:17;10.30;99.90
46490;DHT22;32204;49.160;8.580;2023-11-21T06:05:42;10.20;99.90
46490;DHT22;32204;49.160;8.580;2023-11-21T06:08:08;10.20;99.90
46490;DHT22;32204;49.160;8.580;2023-11-21T06:10:34;10.30;99.90
46490;DHT22;32204;49.160;8.580;2023-11-21T06:13:00;10.30;99.90
46490;DHT22;32204;49.160;8.580;2023-11-21T06:15:25;10.30;99.90
46490;DHT22;32204;49.160;8.580;2023-11-21T06:17:51;10.30;99.90
46490;DHT22;32204;49.160;8.580;2023-11-21T06:20:20;10.30;99.90
46490;DHT22;32204;49.160;8.580;2023-11-21T06:22:48;10.40;99.90
46490;DHT22;32204;49.160;8.580;2023-11-21T06:25:14;10.40;99.90
46490;DHT22;32204;49.160;8.580;2023-11-21T06:27:41;10.40;99.90
46490;DHT22;32204;49.160;8.580;2023-11-21T06:30:07;10.50;99.90
46490;DHT22;32204;49.160;8.580;2023-11-21T06:32:35;10.50;99.90
46490;DHT22;32204;49.160;8.580;2023-11-21T06:35:02;10.50;99.90
46490;DHT22;32204;49.160;8.580;2023-11-21T06:37:30;10.60;99.90
46490;DHT22;32204;49.160;8.580;2023-11-21T06:39:56;10.60;99.90
46490;DHT22;32204;49.160;8.580;2023-11-21T06:42:22;10.60;99.90
46490;DHT22;32204;49.160;8.580;2023-11-21T06:44:49;10.70;99.90
46490;DHT22;32204;49.160;8.580;2023-11-21T06:47:17;10.70;99.90
46490;DHT22;32204;49.160;8.580;2023-11-21T06:49:43;10.80;99.90
46490;DHT22;32204;49.160;8.580;2023-11-21T06:52:09;10.80;99.90
46490;DHT22;32204;49.160;8.580;2023-11-21T06:54:36;10.80;99.90
46490;DHT22;32204;49.160;8.580;2023-11-21T06:57:02;10.90;99.90
46490;DHT22;32204;49.160;8.580;2023-11-21T06:59:31;10.90;99.90
46490;DHT22;32204;49.160;8.580;2023-11-21T07:01:57;11.00;99.90
46490;DHT22;32204;49.160;8.580;2023-11-21T07:04:23;11.00;99.90
46490;DHT22;32204;49.160;8.580;2023-11-21T07:06:51;11.00;99.90
46490;DHT22;32204;49.160;8.580;2023-11-21T07:09:17;11.10;99.90
46490;DHT22;32204;49.160;8.580;2023-11-21T07:11:42;11.20;99.90
46490;DHT22;32204;49.160;8.580;2023-11-21T07:14:08;11.20;99.90
46490;DHT22;32204;49.160;8.580;2023-11-21T07:16:37;11.10;99.90
46490;DHT22;32204;49.160;8.580;2023-11-21T07:19:06;11.00;99.90
46490;DHT22;32204;49.160;8.580;2023-11-21T07:21:32;11.00;99.90
46490;DHT22;32204;49.160;8.580;2023-11-21T07:24:00;11.00;99.90
46490;DHT22;32204;49.160;8.580;2023-11-21T07:26:26;11.10;99.90
46490;DHT22;32204;49.160;8.580;2023-11-21T07:28:52;11.10;99.90
46490;DHT22;32204;49.160;8.580;2023-11-21T07:31:18;11.00;99.90
46490;DHT22;32204;49.160;8.580;2023-11-21T07:33:45;11.00;99.90
46490;DHT22;32204;49.160;8.580;2023-11-21T07:36:16;11.00;99.90
46490;DHT22;32204;49.160;8.580;2023-11-21T07:38:44;11.00;99.90
46490;DHT22;32204;49.160;8.580;2023-11-21T07:41:10;11.00;99.90
46490;DHT22;32204;49.160;8.580;2023-11-21T07:43:36;10.80;99.90
46490;DHT22;32204;49.160;8.580;2023-11-21T07:46:03;10.80;99.90
46490;DHT22;32204;49.160;8.580;2023-11-21T07:48:32;10.80;99.90
46490;DHT22;32204;49.160;8.580;2023-11-21T07:50:58;10.80;99.90
46490;DHT22;32204;49.160;8.580;2023-11-21T07:53:25;10.70;99.90
46490;DHT22;32204;49.160;8.580;2023-11-21T07:55:51;10.60;99.90
46490;DHT22;32204;49.160;8.580;2023-11-21T07:58:17;10.60;99.90
46490;DHT22;32204;49.160;8.580;2023-11-21T08:00:43;10.60;99.90
46490;DHT22;32204;49.160;8.580;2023-11-21T08:03:09;10.60;99.90
46490;DHT22;32204;49.160;8.580;2023-11-21T08:05:34;10.50;99.90
46490;DHT22;32204;49.160;8.580;2023-11-21T08:08:00;10.50;99.90
46490;DHT22;32204;49.160;8.580;2023-11-21T08:10:26;10.40;99.90
46490;DHT22;32204;49.160;8.580;2023-11-21T08:12:52;10.40;99.90
46490;DHT22;32204;49.160;8.580;2023-11-21T08:15:19;10.40;99.90
46490;DHT22;32204;49.160;8.580;2023-11-21T08:17:46;10.40;99.90
46490;DHT22;32204;49.160;8.580;2023-11-21T08:20:13;10.50;99.90
46490;DHT22;32204;49.160;8.580;2023-11-21T08:22:42;10.60;99.90
46490;DHT22;32204;49.160;8.580;2023-11-21T08:25:08;10.70;99.90
46490;DHT22;32204;49.160;8.580;2023-11-21T08:27:34;10.90;99.90
46490;DHT22;32204;49.160;8.580;2023-11-21T08:30:03;11.00;99.90
46490;DHT22;32204;49.160;8.580;2023-11-21T08:32:29;10.90;99.90
46490;DHT22;32204;49.160;8.580;2023-11-21T08:34:57;11.00;99.90
46490;DHT22;32204;49.160;8.580;2023-11-21T08:37:23;10.90;99.90
46490;DHT22;32204;49.160;8.580;2023-11-21T08:39:49;11.00;99.90
46490;DHT22;32204;49.160;8.580;2023-11-21T08:42:15;11.00;99.90
46490;DHT22;32204;49.160;8.580;2023-11-21T08:44:40;11.00;99.90
46490;DHT22;32204;49.160;8.580;2023-11-21T08:47:07;10.90;99.90
46490;DHT22;32204;49.160;8.580;2023-11-21T08:49:32;10.90;99.90
46490;DHT22;32204;49.160;8.580;2023-11-21T08:51:58;10.90;99.90
46490;DHT22;32204;49.160;8.580;2023-11-21T08:54:27;11.00;99.90
46490;DHT22;32204;49.160;8.580;2023-11-21T08:56:53;11.10;99.90
46490;DHT22;32204;49.160;8.580;2023-11-21T08:59:20;11.00;99.90
46490;DHT22;32204;49.160;8.580;2023-11-21T09:01:46;10.80;99.90
46490;DHT22;32204;49.160;8.580;2023-11-21T09:04:12;10.70;99.90
46490;DHT22;32204;49.160;8.580;2023-11-21T09:06:39;10.80;99.90
46490;DHT22;32204;49.160;8.580;2023-11-21T09:09:05;10.80;99.90
46490;DHT22;32204;49.160;8.580;2023-11-21T09:11:32;10.80;99.90
46490;DHT22;32204;49.160;8.580;2023-11-21T09:13:59;10.80;99.90
46490;DHT22;32204;49.160;8.580;2023-11-21T09:16:26;10.80;99.90
46490;DHT22;32204;49.160;8.580;2023-11-21T09:18:51;10.70;99.90
46490;DHT22;32204;49.160;8.580;2023-11-21T09:21:17;10.70;99.90
46490;DHT22;32204;49.160;8.580;2023-11-21T09:23:44;10.70;99.90
46490;DHT22;32204;49.160;8.580;2023-11-21T09:26:10;10.80;99.90
46490;DHT22;32204;49.160;8.580;2023-11-21T09:28:36;10.90;99.90
46490;DHT22;32204;49.160;8.580;2023-11-21T09:31:08;10.90;99.90
46490;DHT22;32204;49.160;8.580;2023-11-21T09:33:34;11.00;99.90
46490;DHT22;32204;49.160;8.580;2023-11-21T09:36:00;11.10;99.90
46490;DHT22;32204;49.160;8.580;2023-11-21T09:38:26;11.00;99.90
46490;DHT22;32204;49.160;8.580;2023-11-21T09:40:54;11.00;99.90
46490;DHT22;32204;49.160;8.580;2023-11-21T09:43:20;11.10;99.90
46490;DHT22;32204;49.160;8.580;2023-11-21T09:45:49;11.10;99.90
46490;DHT22;32204;49.160;8.580;2023-11-21T09:48:20;11.10;99.90
46490;DHT22;32204;49.160;8.580;2023-11-21T09:50:47;11.20;99.90
46490;DHT22;32204;49.160;8.580;2023-11-21T09:53:19;11.10;99.90
46490;DHT22;32204;49.160;8.580;2023-11-21T09:55:53;11.10;99.90
46490;DHT22;32204;49.160;8.580;2023-11-21T09:58:19;11.10;99.90
46490;DHT22;32204;49.160;8.580;2023-11-21T10:00:48;11.20;99.90
46490;DHT22;32204;49.160;8.580;2023-11-21T10:03:14;11.20;99.90
46490;DHT22;32204;49.160;8.580;2023-11-21T10:05:43;11.30;99.90
46490;DHT22;32204;49.160;8.580;2023-11-21T10:08:11;11.30;99.90
46490;DHT22;32204;49.160;8.580;2023-11-21T10:10:42;11.40;99.90
46490;DHT22;32204;49.160;8.580;2023-11-21T10:13:11;11.30;99.90
46490;DHT22;32204;49.160;8.580;2023-11-21T10:15:38;11.30;99.90
46490;DHT22;32204;49.160;8.580;2023-11-21T10:18:05;11.30;99.90
46490;DHT22;32204;49.160;8.580;2023-11-21T10:20:33;11.30;99.90
46490;DHT22;32204;49.160;8.580;2023-11-21T10:22:59;11.30;99.90
46490;DHT22;32204;49.160;8.580;2023-11-21T10:25:28;11.30;99.90
46490;DHT22;32204;49.160;8.580;2023-11-21T10:28:01;11.20;99.90
46490;DHT22;32204;49.160;8.580;2023-11-21T10:30:37;11.30;99.90
46490;DHT22;32204;49.160;8.580;2023-11-21T10:33:04;11.30;99.90
46490;DHT22;32204;49.160;8.580;2023-11-21T10:35:47;11.40;99.90
46490;DHT22;32204;49.160;8.580;2023-11-21T10:38:21;11.40;99.90
46490;DHT22;32204;49.160;8.580;2023-11-21T10:40:48;11.60;99.90
46490;DHT22;32204;49.160;8.580;2023-11-21T10:43:15;11.60;99.90
46490;DHT22;32204;49.160;8.580;2023-11-21T10:45:41;11.60;99.90
46490;DHT22;32204;49.160;8.580;2023-11-21T10:48:13;11.60;99.90
46490;DHT22;32204;49.160;8.580;2023-11-21T10:50:43;11.50;99.90
46490;DHT22;32204;49.160;8.580;2023-11-21T10:53:09;11.40;99.90
46490;DHT22;32204;49.160;8.580;2023-11-21T10:55:37;11.40;99.90
46490;DHT22;32204;49.160;8.580;2023-11-21T10:58:04;11.30;99.90
46490;DHT22;32204;49.160;8.580;2023-11-21T11:00:32;11.30;99.90
46490;DHT22;32204;49.160;8.580;2023-11-21T11:02:58;11.30;99.90
46490;DHT22;32204;49.160;8.580;2023-11-21T11:05:26;11.20;99.90
46490;DHT22;32204;49.160;8.580;2023-11-21T11:08:00;11.10;99.90
46490;DHT22;32204;49.160;8.580;2023-11-21T11:10:28;11.10;99.90
46490;DHT22;32204;49.160;8.580;2023-11-21T11:12:58;11.00;99.90
46490;DHT22;32204;49.160;8.580;2023-11-21T11:15:28;11.00;99.90
46490;DHT22;32204;49.160;8.580;2023-11-21T11:17:54;11.10;99.90
46490;DHT22;32204;49.160;8.580;2023-11-21T11:20:25;11.10;99.90
46490;DHT22;32204;49.160;8.580;2023-11-21T11:25:55;11.10;99.90
46490;DHT22;32204;49.160;8.580;2023-11-21T11:28:32;11.10;99.90
46490;DHT22;32204;49.160;8.580;2023-11-21T11:34:00;11.00;99.90
46490;DHT22;32204;49.160;8.580;2023-11-21T11:36:35;11.10;99.90
46490;DHT22;32204;49.160;8.580;2023-11-21T11:39:03;11.10;99.90
46490;DHT22;32204;49.160;8.580;2023-11-21T11:41:32;11.10;99.90
46490;DHT22;32204;49.160;8.580;2023-11-21T11:44:00;11.10;99.90
46490;DHT22;32204;49.160;8.580;2023-11-21T11:46:46;11.20;99.90
46490;DHT22;32204;49.160;8.580;2023-11-21T11:49:27;11.30;99.90
46490;DHT22;32204;49.160;8.580;2023-11-21T11:54:56;11.20;99.90
46490;DHT22;32204;49.160;8.580;2023-11-21T11:57:26;11.10;99.90
46490;DHT22;32204;49.160;8.580;2023-11-21T12:02:40;11.10;99.90
46490;DHT22;32204;49.160;8.580;2023-11-21T12:05:13;11.20;99.90
46490;DHT22;32204;49.160;8.580;2023-11-21T12:07:42;11.20;99.90
46490;DHT22;32204;49.160;8.580;2023-11-21T12:10:09;11.30;99.90
46490;DHT22;32204;49.160;8.580;2023-11-21T12:12:36;11.30;99.90
46490;DHT22;32204;49.160;8.580;2023-11-21T12:15:07;11.30;99.90
46490;DHT22;32204;49.160;8.580;2023-11-21T12:17:33;11.40;99.90
46490;DHT22;32204;49.160;8.580;2023-11-21T12:20:03;11.50;99.90
46490;DHT22;32204;49.160;8.580;2023-11-21T12:22:30;11.50;99.90
46490;DHT22;32204;49.160;8.580;2023-11-21T12:24:56;11.50;99.90
46490;DHT22;32204;49.160;8.580;2023-11-21T12:27:22;11.60;99.90
46490;DHT22;32204;49.160;8.580;2023-11-21T12:29:47;11.70;99.90
46490;DHT22;32204;49.160;8.580;2023-11-21T12:32:13;11.60;99.90
46490;DHT22;32204;49.160;8.580;2023-11-21T12:34:43;11.60;99.90
46490;DHT22;32204;49.160;8.580;2023-11-21T12:37:09;11.60;99.90
46490;DHT22;32204;49.160;8.580;2023-11-21T12:39:35;11.50;99.90
46490;DHT22;32204;49.160;8.580;2023-11-21T12:42:01;11.50;99.90
46490;DHT22;32204;49.160;8.580;2023-11-21T12:44:27;11.50;99.90
46490;DHT22;32204;49.160;8.580;2023-11-21T12:46:53;11.50;99.90
46490;DHT22;32204;49.160;8.580;2023-11-21T12:49:18;11.40;99.90
46490;DHT22;32204;49.160;8.580;2023-11-21T12:51:45;11.50;99.90
46490;DHT22;32204;49.160;8.580;2023-11-21T12:54:12;11.50;99.90
46490;DHT22;32204;49.160;8.580;2023-11-21T12:56:39;11.40;99.90
46490;DHT22;32204;49.160;8.580;2023-11-21T12:59:04;11.40;99.90
46490;DHT22;32204;49.160;8.580;2023-11-21T13:01:34;11.40;99.90
46490;DHT22;32204;49.160;8.580;2023-11-21T13:04:07;11.50;99.90
46490;DHT22;32204;49.160;8.580;2023-11-21T13:06:36;11.50;99.90
46490;DHT22;32204;49.160;8.580;2023-11-21T13:09:07;11.40;99.90
46490;DHT22;32204;49.160;8.580;2023-11-21T13:11:36;11.30;99.90
46490;DHT22;32204;49.160;8.580;2023-11-21T13:14:04;11.30;99.90
46490;DHT22;32204;49.160;8.580;2023-11-21T13:16:33;11.40;99.90
46490;DHT22;32204;49.160;8.580;2023-11-21T13:18:59;11.30;99.90
46490;DHT22;32204;49.160;8.580;2023-11-21T13:21:24;11.30;99.90
46490;DHT22;32204;49.160;8.580;2023-11-21T13:23:50;11.40;99.90
46490;DHT22;32204;49.160;8.580;2023-11-21T13:26:18;11.50;99.90
46490;DHT22;32204;49.160;8.580;2023-11-21T13:28:46;11.50;99.90
46490;DHT22;32204;49.160;8.580;2023-11-21T13:31:12;11.60;99.90
46490;DHT22;32204;49.160;8.580;2023-11-21T13:33:52;11.60;99.90
46490;DHT22;32204;49.160;8.580;2023-11-21T13:36:30;11.70;99.90
46490;DHT22;32204;49.160;8.580;2023-11-21T13:38:58;11.80;99.90
46490;DHT22;32204;49.160;8.580;2023-11-21T13:41:24;11.80;99.90
46490;DHT22;32204;49.160;8.580;2023-11-21T13:43:56;11.80;99.90
46490;DHT22;32204;49.160;8.580;2023-11-21T13:46:39;11.80;99.90
46490;DHT22;32204;49.160;8.580;2023-11-21T13:49:04;11.90;99.90
46490;DHT22;32204;49.160;8.580;2023-11-21T13:51:36;12.00;99.90
46490;DHT22;32204;49.160;8.580;2023-11-21T13:54:07;11.90;99.90
46490;DHT22;32204;49.160;8.580;2023-11-21T13:56:38;11.90;99.30
46490;DHT22;32204;49.160;8.580;2023-11-21T13:59:05;12.00;99.90
46490;DHT22;32204;49.160;8.580;2023-11-21T14:01:48;12.20;94.60
46490;DHT22;32204;49.160;8.580;2023-11-21T14:04:20;12.20;26.30
46490;DHT22;32204;49.160;8.580;2023-11-21T14:07:00;12.30;1.00
46490;DHT22;32204;49.160;8.580;2023-11-21T14:09:36;12.40;1.00
46490;DHT22;32204;49.160;8.580;2023-11-21T14:12:09;12.60;99.90
46490;DHT22;32204;49.160;8.580;2023-11-21T14:14:37;12.60;99.90
46490;DHT22;32204;49.160;8.580;2023-11-21T14:17:04;12.60;99.90
46490;DHT22;32204;49.160;8.580;2023-11-21T14:19:32;12.80;99.90
46490;DHT22;32204;49.160;8.580;2023-11-21T14:21:59;12.70;1.00
46490;DHT22;32204;49.160;8.580;2023-11-21T14:24:25;12.50;1.00
46490;DHT22;32204;49.160;8.580;2023-11-21T14:26:51;12.30;99.90
46490;DHT22;32204;49.160;8.580;2023-11-21T14:29:18;12.20;99.90
46490;DHT22;32204;49.160;8.580;2023-11-21T14:31:49;12.20;99.90
46490;DHT22;32204;49.160;8.580;2023-11-21T14:34:17;12.00;99.90
46490;DHT22;32204;49.160;8.580;2023-11-21T14:36:43;12.00;99.90
46490;DHT22;32204;49.160;8.580;2023-11-21T14:39:10;11.90;99.90
46490;DHT22;32204;49.160;8.580;2023-11-21T14:41:48;11.80;99.90
46490;DHT22;32204;49.160;8.580;2023-11-21T14:44:14;11.70;99.90
46490;DHT22;32204;49.160;8.580;2023-11-21T14:46:40;11.80;99.90
46490;DHT22;32204;49.160;8.580;2023-11-21T14:49:12;11.70;99.90
46490;DHT22;32204;49.160;8.580;2023-11-21T14:51:53;11.70;99.90
46490;DHT22;32204;49.160;8.580;2023-11-21T14:54:32;11.70;99.90
46490;DHT22;32204;49.160;8.580;2023-11-21T14:57:10;11.70;99.90
46490;DHT22;32204;49.160;8.580;2023-11-21T14:59:43;11.70;99.90
46490;DHT22;32204;49.160;8.580;2023-11-21T15:02:09;11.70;99.90
46490;DHT22;32204;49.160;8.580;2023-11-21T15:04:42;11.80;99.90
46490;DHT22;32204;49.160;8.580;2023-11-21T15:07:08;11.70;87.40
46490;DHT22;32204;49.160;8.580;2023-11-21T15:09:34;11.70;99.90
46490;DHT22;32204;49.160;8.580;2023-11-21T15:12:05;11.50;99.90
46490;DHT22;32204;49.160;8.580;2023-11-21T15:14:44;11.50;99.90
46490;DHT22;32204;49.160;8.580;2023-11-21T15:17:12;11.40;99.90
46490;DHT22;32204;49.160;8.580;2023-11-21T15:19:42;11.40;99.90
46490;DHT22;32204;49.160;8.580;2023-11-21T15:22:09;11.50;99.90
46490;DHT22;32204;49.160;8.580;2023-11-21T15:24:37;11.40;99.90
46490;DHT22;32204;49.160;8.580;2023-11-21T15:27:03;11.40;99.90
46490;DHT22;32204;49.160;8.580;2023-11-21T15:29:29;11.40;99.90
46490;DHT22;32204;49.160;8.580;2023-11-21T15:31:54;11.50;99.90
46490;DHT22;32204;49.160;8.580;2023-11-21T15:34:22;11.40;99.90
46490;DHT22;32204;49.160;8.580;2023-11-21T15:36:47;11.40;99.90
46490;DHT22;32204;49.160;8.580;2023-11-21T15:39:16;11.30;99.90
46490;DHT22;32204;49.160;8.580;2023-11-21T15:41:41;11.20;99.90
46490;DHT22;32204;49.160;8.580;2023-11-21T15:44:07;11.00;99.90